sensor_id;sensor_type;location;lat;lon;timestamp;pressure;altitude;pressure_sealevel;temperature
12007;BMP180;6062;47.294;12.182;2023-04-03T06:12:25;80088.00;;;-0.60
12007;BMP180;6062;47.294;12.182;2023-04-03T06:14:51;80086.00;;;-0.50
12007;BMP180;6062;47.294;12.182;2023-04-03T06:17:18;80087.00;;;-0.30
12007;BMP180;6062;47.294;12.182;2023-04-03T06:19:44;80078.00;;;-0.20
12007;BMP180;6062;47.294;12.182;2023-04-03T06:22:10;80077.00;;;0.00
12007;BMP180;6062;47.294;12.182;2023-04-03T06:24:37;80097.00;;;0.10
12007;BMP180;6062;47.294;12.182;2023-04-03T06:27:04;80093.00;;;0.20
12007;BMP180;6062;47.294;12.182;2023-04-03T06:29:30;80090.00;;;0.30
12007;BMP180;6062;47.294;12.182;2023-04-03T06:31:56;80097.00;;;0.40
12007;BMP180;6062;47.294;12.182;2023-04-03T06:34:22;80088.00;;;0.50
12007;BMP180;6062;47.294;12.182;2023-04-03T06:36:48;80090.00;;;0.60
12007;BMP180;6062;47.294;12.182;2023-04-03T06:39:20;80090.00;;;0.70
12007;BMP180;6062;47.294;12.182;2023-04-03T06:41:47;80097.00;;;0.90
12007;BMP180;6062;47.294;12.182;2023-04-03T06:44:13;80095.00;;;1.00
12007;BMP180;6062;47.294;12.182;2023-04-03T06:46:42;80102.00;;;1.10
12007;BMP180;6062;47.294;12.182;2023-04-03T06:49:08;80104.00;;;1.30
12007;BMP180;6062;47.294;12.182;2023-04-03T06:51:36;80109.00;;;1.40
12007;BMP180;6062;47.294;12.182;2023-04-03T06:54:03;80106.00;;;1.60
12007;BMP180;6062;47.294;12.182;2023-04-03T06:56:29;80100.00;;;1.80
12007;BMP180;6062;47.294;12.182;2023-04-03T06:58:57;80115.00;;;1.90
12007;BMP180;6062;47.294;12.182;2023-04-03T07:01:25;80114.00;;;2.10
12007;BMP180;6062;47.294;12.182;2023-04-03T07:03:53;80105.00;;;2.20
12007;BMP180;6062;47.294;12.182;2023-04-03T07:06:19;80110.00;;;2.30
12007;BMP180;6062;47.294;12.182;2023-04-03T07:08:45;80113.00;;;2.40
12007;BMP180;6062;47.294;12.182;2023-04-03T07:11:12;80115.00;;;2.50
12007;BMP180;6062;47.294;12.182;2023-04-03T07:13:38;80124.00;;;2.60
12007;BMP180;6062;47.294;12.182;2023-04-03T07:16:06;80126.00;;;2.70
12007;BMP180;6062;47.294;12.182;2023-04-03T07:18:33;80117.00;;;2.70
12007;BMP180;6062;47.294;12.182;2023-04-03T07:20:59;80114.00;;;2.70
12007;BMP180;6062;47.294;12.182;2023-04-03T07:23:25;80115.00;;;2.70
12007;BMP180;6062;47.294;12.182;2023-04-03T07:25:52;80118.00;;;2.70
12007;BMP180;6062;47.294;12.182;2023-04-03T07:28:21;80115.00;;;2.80
12007;BMP180;6062;47.294;12.182;2023-04-03T07:31:06;80109.00;;;2.90
12007;BMP180;6062;47.294;12.182;2023-04-03T07:33:34;80106.00;;;3.00
12007;BMP180;6062;47.294;12.182;2023-04-03T07:36:00;80110.00;;;3.10
12007;BMP180;6062;47.294;12.182;2023-04-03T07:38:26;80109.00;;;3.20
12007;BMP180;6062;47.294;12.182;2023-04-03T07:40:52;80120.00;;;3.40
12007;BMP180;6062;47.294;12.182;2023-04-03T07:43:20;80118.00;;;3.60
12007;BMP180;6062;47.294;12.182;2023-04-03T07:45:48;80118.00;;;3.70
12007;BMP180;6062;47.294;12.182;2023-04-03T07:48:19;80128.00;;;3.90
12007;BMP180;6062;47.294;12.182;2023-04-03T07:50:45;80121.00;;;4.00
12007;BMP180;6062;47.294;12.182;2023-04-03T07:53:11;80123.00;;;4.10
12007;BMP180;6062;47.294;12.182;2023-04-03T07:55:37;80126.00;;;4.30
12007;BMP180;6062;47.294;12.182;2023-04-03T07:58:10;80130.00;;;4.40
12007;BMP180;6062;47.294;12.182;2023-04-03T08:00:37;80127.00;;;4.50
12007;BMP180;6062;47.294;12.182;2023-04-03T08:03:04;80139.00;;;4.60
12007;BMP180;6062;47.294;12.182;2023-04-03T08:05:31;80128.00;;;4.60
12007;BMP180;6062;47.294;12.182;2023-04-03T08:07:57;80128.00;;;4.60
12007;BMP180;6062;47.294;12.182;2023-04-03T08:10:22;80128.00;;;4.70
12007;BMP180;6062;47.294;12.182;2023-04-03T08:12:48;80130.00;;;4.80
12007;BMP180;6062;47.294;12.182;2023-04-03T08:15:14;80132.00;;;4.90
12007;BMP180;6062;47.294;12.182;2023-04-03T08:17:40;80130.00;;;5.00
12007;BMP180;6062;47.294;12.182;2023-04-03T08:20:07;80133.00;;;5.20
12007;BMP180;6062;47.294;12.182;2023-04-03T08:22:34;80132.00;;;5.30
12007;BMP180;6062;47.294;12.182;2023-04-03T08:25:00;80140.00;;;5.40
12007;BMP180;6062;47.294;12.182;2023-04-03T08:27:27;80131.00;;;5.40
12007;BMP180;6062;47.294;12.182;2023-04-03T08:29:53;80134.00;;;5.50
12007;BMP180;6062;47.294;12.182;2023-04-03T08:32:18;80135.00;;;5.60
12007;BMP180;6062;47.294;12.182;2023-04-03T08:34:44;80137.00;;;5.70
12007;BMP180;6062;47.294;12.182;2023-04-03T08:37:11;80141.00;;;5.80
12007;BMP180;6062;47.294;12.182;2023-04-03T08:39:37;80140.00;;;5.90
12007;BMP180;6062;47.294;12.182;2023-04-03T08:45:02;80133.00;;;5.90
12007;BMP180;6062;47.294;12.182;2023-04-03T08:47:55;80139.00;;;6.00
12007;BMP180;6062;47.294;12.182;2023-04-03T08:50:31;80132.00;;;6.10
12007;BMP180;6062;47.294;12.182;2023-04-03T08:52:59;80142.00;;;6.20
12007;BMP180;6062;47.294;12.182;2023-04-03T08:55:46;80138.00;;;6.30
12007;BMP180;6062;47.294;12.182;2023-04-03T08:58:39;80132.00;;;6.40
12007;BMP180;6062;47.294;12.182;2023-04-03T09:01:48;80133.00;;;6.50
12007;BMP180;6062;47.294;12.182;2023-04-03T09:04:16;80128.00;;;6.50
12007;BMP180;6062;47.294;12.182;2023-04-03T09:07:03;80134.00;;;6.60
12007;BMP180;6062;47.294;12.182;2023-04-03T09:09:40;80140.00;;;6.70
12007;BMP180;6062;47.294;12.182;2023-04-03T09:12:22;80136.00;;;6.80
12007;BMP180;6062;47.294;12.182;2023-04-03T09:15:21;80136.00;;;6.90
12007;BMP180;6062;47.294;12.182;2023-04-03T09:18:04;80137.00;;;7.00
12007;BMP180;6062;47.294;12.182;2023-04-03T09:23:46;80139.00;;;7.10
12007;BMP180;6062;47.294;12.182;2023-04-03T09:26:25;80143.00;;;7.30
12007;BMP180;6062;47.294;12.182;2023-04-03T09:28:59;80141.00;;;7.40
12007;BMP180;6062;47.294;12.182;2023-04-03T09:31:37;80146.00;;;7.40
12007;BMP180;6062;47.294;12.182;2023-04-03T09:34:27;80150.00;;;7.50
12007;BMP180;6062;47.294;12.182;2023-04-03T09:36:57;80136.00;;;7.60
12007;BMP180;6062;47.294;12.182;2023-04-03T09:39:29;80137.00;;;7.70
12007;BMP180;6062;47.294;12.182;2023-04-03T09:42:02;80140.00;;;7.80
12007;BMP180;6062;47.294;12.182;2023-04-03T09:44:32;80150.00;;;7.80
12007;BMP180;6062;47.294;12.182;2023-04-03T09:46:59;80141.00;;;7.90
12007;BMP180;6062;47.294;12.182;2023-04-03T09:49:25;80145.00;;;7.90
12007;BMP180;6062;47.294;12.182;2023-04-03T09:51:51;80145.00;;;8.00
12007;BMP180;6062;47.294;12.182;2023-04-03T09:56:53;80141.00;;;8.10
12007;BMP180;6062;47.294;12.182;2023-04-03T09:59:21;80141.00;;;8.20
12007;BMP180;6062;47.294;12.182;2023-04-03T10:02:51;80148.00;;;8.30
12007;BMP180;6062;47.294;12.182;2023-04-03T10:05:34;80145.00;;;8.30
12007;BMP180;6062;47.294;12.182;2023-04-03T10:10:44;80150.00;;;8.40
12007;BMP180;6062;47.294;12.182;2023-04-03T10:13:17;80151.00;;;8.40
12007;BMP180;6062;47.294;12.182;2023-04-03T10:16:02;80147.00;;;8.60
12007;BMP180;6062;47.294;12.182;2023-04-03T10:21:48;80155.00;;;8.70
12007;BMP180;6062;47.294;12.182;2023-04-03T10:27:31;80155.00;;;8.80
12007;BMP180;6062;47.294;12.182;2023-04-03T10:30:10;80150.00;;;8.80
12007;BMP180;6062;47.294;12.182;2023-04-03T10:33:28;80145.00;;;8.90
12007;BMP180;6062;47.294;12.182;2023-04-03T10:36:19;80145.00;;;9.00
12007;BMP180;6062;47.294;12.182;2023-04-03T10:48:07;80153.00;;;8.80
12007;BMP180;6062;47.294;12.182;2023-04-03T10:51:33;80153.00;;;8.70
12007;BMP180;6062;47.294;12.182;2023-04-03T10:54:30;80152.00;;;8.70
12007;BMP180;6062;47.294;12.182;2023-04-03T10:57:11;80157.00;;;8.60
12007;BMP180;6062;47.294;12.182;2023-04-03T10:59:48;80151.00;;;8.60
12007;BMP180;6062;47.294;12.182;2023-04-03T11:02:40;80146.00;;;8.60
12007;BMP180;6062;47.294;12.182;2023-04-03T11:05:22;80143.00;;;8.50
12007;BMP180;6062;47.294;12.182;2023-04-03T11:07:55;80136.00;;;8.60
12007;BMP180;6062;47.294;12.182;2023-04-03T11:10:42;80145.00;;;8.60
12007;BMP180;6062;47.294;12.182;2023-04-03T11:15:49;80148.00;;;8.90
12007;BMP180;6062;47.294;12.182;2023-04-03T11:18:33;80147.00;;;9.00
12007;BMP180;6062;47.294;12.182;2023-04-03T11:23:39;80139.00;;;9.20
12007;BMP180;6062;47.294;12.182;2023-04-03T11:26:15;80141.00;;;9.30
12007;BMP180;6062;47.294;12.182;2023-04-03T11:28:42;80144.00;;;9.40
12007;BMP180;6062;47.294;12.182;2023-04-03T11:34:40;80141.00;;;9.60
12007;BMP180;6062;47.294;12.182;2023-04-03T11:37:33;80145.00;;;9.80
12007;BMP180;6062;47.294;12.182;2023-04-03T11:42:54;80142.00;;;10.00
12007;BMP180;6062;47.294;12.182;2023-04-03T11:50:47;80148.00;;;10.20
12007;BMP180;6062;47.294;12.182;2023-04-03T11:58:26;80144.00;;;10.10
12007;BMP180;6062;47.294;12.182;2023-04-03T12:00:55;80146.00;;;9.60
12007;BMP180;6062;47.294;12.182;2023-04-03T12:11:29;80138.00;;;7.10
12007;BMP180;6062;47.294;12.182;2023-04-03T12:40:55;80123.00;;;3.00
12007;BMP180;6062;47.294;12.182;2023-04-03T12:43:55;80134.00;;;2.90
12007;BMP180;6062;47.294;12.182;2023-04-03T12:46:35;80126.00;;;2.80
12007;BMP180;6062;47.294;12.182;2023-04-03T12:49:41;80123.00;;;2.90
12007;BMP180;6062;47.294;12.182;2023-04-03T12:52:43;80116.00;;;3.00
12007;BMP180;6062;47.294;12.182;2023-04-03T12:55:18;80112.00;;;3.10
12007;BMP180;6062;47.294;12.182;2023-04-03T12:57:45;80114.00;;;3.10
12007;BMP180;6062;47.294;12.182;2023-04-03T13:00:32;80113.00;;;2.80
12007;BMP180;6062;47.294;12.182;2023-04-03T13:03:01;80111.00;;;2.50
12007;BMP180;6062;47.294;12.182;2023-04-03T13:05:28;80112.00;;;2.40
12007;BMP180;6062;47.294;12.182;2023-04-03T13:08:02;80112.00;;;2.20
12007;BMP180;6062;47.294;12.182;2023-04-03T13:10:29;80112.00;;;2.00
12007;BMP180;6062;47.294;12.182;2023-04-03T13:12:58;80108.00;;;1.70
12007;BMP180;6062;47.294;12.182;2023-04-03T13:15:46;80108.00;;;1.40
12007;BMP180;6062;47.294;12.182;2023-04-03T13:18:25;80108.00;;;1.10
12007;BMP180;6062;47.294;12.182;2023-04-03T13:20:53;80108.00;;;0.90
12007;BMP180;6062;47.294;12.182;2023-04-03T13:23:20;80106.00;;;0.70
12007;BMP180;6062;47.294;12.182;2023-04-03T13:25:48;80106.00;;;0.60
12007;BMP180;6062;47.294;12.182;2023-04-03T13:28:21;80105.00;;;0.60
12007;BMP180;6062;47.294;12.182;2023-04-03T13:33:32;80102.00;;;0.50
12007;BMP180;6062;47.294;12.182;2023-04-03T13:36:17;80101.00;;;0.50
12007;BMP180;6062;47.294;12.182;2023-04-03T13:38:44;80101.00;;;0.50
12007;BMP180;6062;47.294;12.182;2023-04-03T13:41:40;80097.00;;;0.60
12007;BMP180;6062;47.294;12.182;2023-04-03T13:44:33;80110.00;;;0.80
12007;BMP180;6062;47.294;12.182;2023-04-03T13:47:23;80113.00;;;1.00
12007;BMP180;6062;47.294;12.182;2023-04-03T13:50:19;80096.00;;;1.30
12007;BMP180;6062;47.294;12.182;2023-04-03T13:52:55;80107.00;;;1.50
12007;BMP180;6062;47.294;12.182;2023-04-03T13:55:32;80107.00;;;1.70
12007;BMP180;6062;47.294;12.182;2023-04-03T13:58:01;80108.00;;;1.70
12007;BMP180;6062;47.294;12.182;2023-04-03T14:01:19;80110.00;;;1.40
12007;BMP180;6062;47.294;12.182;2023-04-03T14:03:59;80113.00;;;1.10
12007;BMP180;6062;47.294;12.182;2023-04-03T14:06:26;80105.00;;;0.80
12007;BMP180;6062;47.294;12.182;2023-04-03T14:08:53;80104.00;;;0.50
12007;BMP180;6062;47.294;12.182;2023-04-03T14:11:24;80107.00;;;0.30
12007;BMP180;6062;47.294;12.182;2023-04-03T14:13:53;80098.00;;;0.10
12007;BMP180;6062;47.294;12.182;2023-04-03T14:16:23;80105.00;;;-0.10
12007;BMP180;6062;47.294;12.182;2023-04-03T14:18:51;80105.00;;;-0.20
12007;BMP180;6062;47.294;12.182;2023-04-03T14:21:20;80099.00;;;-0.30
12007;BMP180;6062;47.294;12.182;2023-04-03T14:23:47;80096.00;;;-0.30
12007;BMP180;6062;47.294;12.182;2023-04-03T14:26:21;80102.00;;;-0.20
12007;BMP180;6062;47.294;12.182;2023-04-03T14:28:53;80098.00;;;-0.20
12007;BMP180;6062;47.294;12.182;2023-04-03T14:31:20;80100.00;;;-0.30
12007;BMP180;6062;47.294;12.182;2023-04-03T14:33:47;80101.00;;;-0.40
12007;BMP180;6062;47.294;12.182;2023-04-03T14:36:21;80101.00;;;-0.50
12007;BMP180;6062;47.294;12.182;2023-04-03T14:38:49;80103.00;;;-0.60
12007;BMP180;6062;47.294;12.182;2023-04-03T14:41:19;80083.00;;;-0.60
12007;BMP180;6062;47.294;12.182;2023-04-03T14:43:46;80091.00;;;-0.70
12007;BMP180;6062;47.294;12.182;2023-04-03T14:46:32;80096.00;;;-0.70
12007;BMP180;6062;47.294;12.182;2023-04-03T14:48:59;80091.00;;;-0.80
12007;BMP180;6062;47.294;12.182;2023-04-03T14:51:24;80088.00;;;-0.90
12007;BMP180;6062;47.294;12.182;2023-04-03T14:53:51;80094.00;;;-1.00
12007;BMP180;6062;47.294;12.182;2023-04-03T14:56:19;80086.00;;;-1.00
12007;BMP180;6062;47.294;12.182;2023-04-03T14:58:49;80086.00;;;-1.10
12007;BMP180;6062;47.294;12.182;2023-04-03T15:01:18;80090.00;;;-1.20
12007;BMP180;6062;47.294;12.182;2023-04-03T15:03:44;80083.00;;;-1.30
12007;BMP180;6062;47.294;12.182;2023-04-03T15:06:14;80089.00;;;-1.40
12007;BMP180;6062;47.294;12.182;2023-04-03T15:08:42;80079.00;;;-1.40
12007;BMP180;6062;47.294;12.182;2023-04-03T15:11:10;80080.00;;;-1.30
12007;BMP180;6062;47.294;12.182;2023-04-03T15:13:38;80076.00;;;-1.20
12007;BMP180;6062;47.294;12.182;2023-04-03T15:16:06;80069.00;;;-1.20
12007;BMP180;6062;47.294;12.182;2023-04-03T15:18:38;80076.00;;;-1.30
12007;BMP180;6062;47.294;12.182;2023-04-03T15:21:05;80086.00;;;-1.30
12007;BMP180;6062;47.294;12.182;2023-04-03T15:23:30;80087.00;;;-1.30
12007;BMP180;6062;47.294;12.182;2023-04-03T15:25:57;80086.00;;;-1.30
12007;BMP180;6062;47.294;12.182;2023-04-03T15:28:28;80086.00;;;-1.40
12007;BMP180;6062;47.294;12.182;2023-04-03T15:30:55;80097.00;;;-1.50
12007;BMP180;6062;47.294;12.182;2023-04-03T15:33:21;80101.00;;;-1.60
12007;BMP180;6062;47.294;12.182;2023-04-03T15:35:47;80095.00;;;-1.60
12007;BMP180;6062;47.294;12.182;2023-04-03T15:38:13;80091.00;;;-1.70
12007;BMP180;6062;47.294;12.182;2023-04-03T15:40:39;80093.00;;;-1.70
12007;BMP180;6062;47.294;12.182;2023-04-03T15:43:06;80088.00;;;-1.80
12007;BMP180;6062;47.294;12.182;2023-04-03T15:45:35;80089.00;;;-1.80
12007;BMP180;6062;47.294;12.182;2023-04-03T15:48:03;80095.00;;;-1.90
12007;BMP180;6062;47.294;12.182;2023-04-03T15:50:31;80091.00;;;-2.00
12007;BMP180;6062;47.294;12.182;2023-04-03T15:52:57;80092.00;;;-2.00
12007;BMP180;6062;47.294;12.182;2023-04-03T15:55:30;80093.00;;;-2.00
12007;BMP180;6062;47.294;12.182;2023-04-03T15:57:57;80094.00;;;-2.00
12007;BMP180;6062;47.294;12.182;2023-04-03T16:00:23;80080.00;;;-2.10
12007;BMP180;6062;47.294;12.182;2023-04-03T16:02:55;80094.00;;;-2.10
12007;BMP180;6062;47.294;12.182;2023-04-03T16:05:23;80100.00;;;-2.30
12007;BMP180;6062;47.294;12.182;2023-04-03T16:07:48;80097.00;;;-2.40
12007;BMP180;6062;47.294;12.182;2023-04-03T16:10:16;80097.00;;;-2.40
12007;BMP180;6062;47.294;12.182;2023-04-03T16:12:43;80094.00;;;-2.50
12007;BMP180;6062;47.294;12.182;2023-04-03T16:15:11;80096.00;;;-2.50
12007;BMP180;6062;47.294;12.182;2023-04-03T16:17:39;80093.00;;;-2.50
12007;BMP180;6062;47.294;12.182;2023-04-03T16:20:08;80093.00;;;-2.50
12007;BMP180;6062;47.294;12.182;2023-04-03T16:22:35;80100.00;;;-2.60
12007;BMP180;6062;47.294;12.182;2023-04-03T16:25:02;80097.00;;;-2.60
12007;BMP180;6062;47.294;12.182;2023-04-03T16:27:28;80098.00;;;-2.70
12007;BMP180;6062;47.294;12.182;2023-04-03T16:29:56;80076.00;;;-2.70
12007;BMP180;6062;47.294;12.182;2023-04-03T16:32:25;80077.00;;;-2.70
12007;BMP180;6062;47.294;12.182;2023-04-03T16:34:52;80086.00;;;-2.70
12007;BMP180;6062;47.294;12.182;2023-04-03T16:37:17;80078.00;;;-2.80
12007;BMP180;6062;47.294;12.182;2023-04-03T16:39:43;80081.00;;;-2.80
12007;BMP180;6062;47.294;12.182;2023-04-03T16:42:09;80095.00;;;-2.90
12007;BMP180;6062;47.294;12.182;2023-04-03T16:44:36;80097.00;;;-3.00
12007;BMP180;6062;47.294;12.182;2023-04-03T16:47:02;80079.00;;;-3.00
12007;BMP180;6062;47.294;12.182;2023-04-03T16:49:28;80090.00;;;-3.00
12007;BMP180;6062;47.294;12.182;2023-04-03T16:51:59;80081.00;;;-3.00
12007;BMP180;6062;47.294;12.182;2023-04-03T16:54:26;80086.00;;;-3.00
12007;BMP180;6062;47.294;12.182;2023-04-03T16:56:52;80092.00;;;-3.10
12007;BMP180;6062;47.294;12.182;2023-04-03T16:59:18;80094.00;;;-3.10
12007;BMP180;6062;47.294;12.182;2023-04-03T17:01:44;80098.00;;;-3.10
12007;BMP180;6062;47.294;12.182;2023-04-03T17:04:09;80102.00;;;-3.10
12007;BMP180;6062;47.294;12.182;2023-04-03T17:06:35;80107.00;;;-3.10
12007;BMP180;6062;47.294;12.182;2023-04-03T17:09:01;80091.00;;;-3.20
12007;BMP180;6062;47.294;12.182;2023-04-03T17:11:28;80100.00;;;-3.20
12007;BMP180;6062;47.294;12.182;2023-04-03T17:13:53;80106.00;;;-3.10
12007;BMP180;6062;47.294;12.182;2023-04-03T17:16:20;80113.00;;;-3.10
12007;BMP180;6062;47.294;12.182;2023-04-03T17:18:47;80102.00;;;-3.00
12007;BMP180;6062;47.294;12.182;2023-04-03T17:21:14;80102.00;;;-3.00
12007;BMP180;6062;47.294;12.182;2023-04-03T17:23:43;80110.00;;;-3.00
12007;BMP180;6062;47.294;12.182;2023-04-03T17:26:09;80105.00;;;-3.10
12007;BMP180;6062;47.294;12.182;2023-04-03T17:28:35;80104.00;;;-3.10
12007;BMP180;6062;47.294;12.182;2023-04-03T17:31:02;80102.00;;;-3.20
12007;BMP180;6062;47.294;12.182;2023-04-03T17:33:29;80094.00;;;-3.40
12007;BMP180;6062;47.294;12.182;2023-04-03T17:36:00;80104.00;;;-3.40
12007;BMP180;6062;47.294;12.182;2023-04-03T17:38:29;80098.00;;;-3.40
12007;BMP180;6062;47.294;12.182;2023-04-03T17:40:57;80093.00;;;-3.30
12007;BMP180;6062;47.294;12.182;2023-04-03T17:43:24;80104.00;;;-3.30
12007;BMP180;6062;47.294;12.182;2023-04-03T17:45:50;80104.00;;;-3.20
12007;BMP180;6062;47.294;12.182;2023-04-03T17:48:16;80095.00;;;-3.20
12007;BMP180;6062;47.294;12.182;2023-04-03T17:50:41;80103.00;;;-3.10
12007;BMP180;6062;47.294;12.182;2023-04-03T17:53:18;80099.00;;;-3.20
12007;BMP180;6062;47.294;12.182;2023-04-03T17:55:44;80110.00;;;-3.30
12007;BMP180;6062;47.294;12.182;2023-04-03T17:58:09;80101.00;;;-3.40
12007;BMP180;6062;47.294;12.182;2023-04-03T18:00:35;80101.00;;;-3.40
12007;BMP180;6062;47.294;12.182;2023-04-03T18:03:01;80110.00;;;-3.50
12007;BMP180;6062;47.294;12.182;2023-04-03T18:05:29;80110.00;;;-3.60
12007;BMP180;6062;47.294;12.182;2023-04-03T18:07:56;80110.00;;;-3.70
12007;BMP180;6062;47.294;12.182;2023-04-03T18:10:23;80098.00;;;-3.80
12007;BMP180;6062;47.294;12.182;2023-04-03T18:12:51;80104.00;;;-3.80
12007;BMP180;6062;47.294;12.182;2023-04-03T18:15:17;80110.00;;;-3.80
12007;BMP180;6062;47.294;12.182;2023-04-03T18:17:43;80112.00;;;-3.70
12007;BMP180;6062;47.294;12.182;2023-04-03T18:20:12;80112.00;;;-3.80
12007;BMP180;6062;47.294;12.182;2023-04-03T18:22:40;80114.00;;;-3.80
12007;BMP180;6062;47.294;12.182;2023-04-03T18:25:07;80111.00;;;-3.90
12007;BMP180;6062;47.294;12.182;2023-04-03T18:27:33;80112.00;;;-4.00
12007;BMP180;6062;47.294;12.182;2023-04-03T18:30:06;80107.00;;;-4.00
12007;BMP180;6062;47.294;12.182;2023-04-03T18:32:33;80121.00;;;-4.00
12007;BMP180;6062;47.294;12.182;2023-04-03T18:34:59;80116.00;;;-4.00
12007;BMP180;6062;47.294;12.182;2023-04-03T18:37:25;80104.00;;;-4.00
12007;BMP180;6062;47.294;12.182;2023-04-03T18:39:52;80119.00;;;-3.90
12007;BMP180;6062;47.294;12.182;2023-04-03T18:42:23;80115.00;;;-3.80
12007;BMP180;6062;47.294;12.182;2023-04-03T18:44:55;80116.00;;;-3.80
12007;BMP180;6062;47.294;12.182;2023-04-03T18:47:23;80116.00;;;-3.90
12007;BMP180;6062;47.294;12.182;2023-04-03T18:49:49;80115.00;;;-3.90
12007;BMP180;6062;47.294;12.182;2023-04-03T18:52:15;80112.00;;;-3.90
12007;BMP180;6062;47.294;12.182;2023-04-03T18:54:41;80110.00;;;-3.90
12007;BMP180;6062;47.294;12.182;2023-04-03T18:57:07;80114.00;;;-3.90
12007;BMP180;6062;47.294;12.182;2023-04-03T18:59:33;80117.00;;;-3.90
12007;BMP180;6062;47.294;12.182;2023-04-03T19:01:59;80106.00;;;-3.90
12007;BMP180;6062;47.294;12.182;2023-04-03T19:04:27;80114.00;;;-3.90
12007;BMP180;6062;47.294;12.182;2023-04-03T19:06:53;80109.00;;;-3.90
12007;BMP180;6062;47.294;12.182;2023-04-03T19:09:19;80107.00;;;-3.90
12007;BMP180;6062;47.294;12.182;2023-04-03T19:11:45;80107.00;;;-3.90
12007;BMP180;6062;47.294;12.182;2023-04-03T19:14:11;80112.00;;;-3.90
12007;BMP180;6062;47.294;12.182;2023-04-03T19:16:37;80105.00;;;-3.90
12007;BMP180;6062;47.294;12.182;2023-04-03T19:19:02;80110.00;;;-3.90
12007;BMP180;6062;47.294;12.182;2023-04-03T19:21:29;80111.00;;;-4.00
12007;BMP180;6062;47.294;12.182;2023-04-03T19:23:55;80113.00;;;-4.00
12007;BMP180;6062;47.294;12.182;2023-04-03T19:26:24;80114.00;;;-4.00
12007;BMP180;6062;47.294;12.182;2023-04-03T19:28:53;80109.00;;;-4.00
12007;BMP180;6062;47.294;12.182;2023-04-03T19:31:20;80104.00;;;-4.00
12007;BMP180;6062;47.294;12.182;2023-04-03T19:33:47;80102.00;;;-4.10
12007;BMP180;6062;47.294;12.182;2023-04-03T19:36:13;80098.00;;;-4.10
12007;BMP180;6062;47.294;12.182;2023-04-03T19:38:41;80107.00;;;-4.10
12007;BMP180;6062;47.294;12.182;2023-04-03T19:41:12;80098.00;;;-4.20
12007;BMP180;6062;47.294;12.182;2023-04-03T19:43:39;80099.00;;;-4.20
12007;BMP180;6062;47.294;12.182;2023-04-03T19:46:06;80094.00;;;-4.20
12007;BMP180;6062;47.294;12.182;2023-04-03T19:48:33;80097.00;;;-4.10
12007;BMP180;6062;47.294;12.182;2023-04-03T19:50:58;80092.00;;;-4.00
12007;BMP180;6062;47.294;12.182;2023-04-03T19:53:24;80098.00;;;-4.00
12007;BMP180;6062;47.294;12.182;2023-04-03T19:55:55;80107.00;;;-3.90
12007;BMP180;6062;47.294;12.182;2023-04-03T19:58:22;80088.00;;;-3.90
12007;BMP180;6062;47.294;12.182;2023-04-03T20:00:48;80094.00;;;-3.90
12007;BMP180;6062;47.294;12.182;2023-04-03T20:03:14;80100.00;;;-3.90
12007;BMP180;6062;47.294;12.182;2023-04-03T20:05:40;80104.00;;;-4.00
12007;BMP180;6062;47.294;12.182;2023-04-03T20:08:06;80107.00;;;-4.00
12007;BMP180;6062;47.294;12.182;2023-04-03T20:10:32;80095.00;;;-4.10
12007;BMP180;6062;47.294;12.182;2023-04-03T20:12:58;80091.00;;;-4.10
12007;BMP180;6062;47.294;12.182;2023-04-03T20:15:23;80091.00;;;-4.10
12007;BMP180;6062;47.294;12.182;2023-04-03T20:17:50;80092.00;;;-4.10
12007;BMP180;6062;47.294;12.182;2023-04-03T20:20:16;80092.00;;;-4.10
12007;BMP180;6062;47.294;12.182;2023-04-03T20:22:43;80088.00;;;-4.10
12007;BMP180;6062;47.294;12.182;2023-04-03T20:25:11;80091.00;;;-4.20
12007;BMP180;6062;47.294;12.182;2023-04-03T20:27:37;80077.00;;;-4.20
12007;BMP180;6062;47.294;12.182;2023-04-03T20:30:09;80086.00;;;-4.30
12007;BMP180;6062;47.294;12.182;2023-04-03T20:32:36;80080.00;;;-4.30
12007;BMP180;6062;47.294;12.182;2023-04-03T20:35:01;80076.00;;;-4.40
12007;BMP180;6062;47.294;12.182;2023-04-03T20:37:27;80072.00;;;-4.40
12007;BMP180;6062;47.294;12.182;2023-04-03T20:39:53;80077.00;;;-4.40
12007;BMP180;6062;47.294;12.182;2023-04-03T20:42:19;80083.00;;;-4.40
12007;BMP180;6062;47.294;12.182;2023-04-03T20:44:44;80079.00;;;-4.40
12007;BMP180;6062;47.294;12.182;2023-04-03T20:47:12;80078.00;;;-4.40
12007;BMP180;6062;47.294;12.182;2023-04-03T20:49:38;80079.00;;;-4.40
12007;BMP180;6062;47.294;12.182;2023-04-03T20:52:04;80079.00;;;-4.50
12007;BMP180;6062;47.294;12.182;2023-04-03T20:54:30;80080.00;;;-4.50
12007;BMP180;6062;47.294;12.182;2023-04-03T20:56:56;80080.00;;;-4.60
12007;BMP180;6062;47.294;12.182;2023-04-03T20:59:22;80082.00;;;-4.60
